Time,TemperatureF,DewpointF,PressureIn,WindDirection,WindDirectionDegrees,WindSpeedMPH,WindSpeedGustMPH,Humidity,HourlyPrecipIn,Conditions,Clouds,dailyrainin,SoftwareType,DateUTC
2013-02-03 00:03:00,40.3,38.7,30.32,South,180,2.9,5.4,94,0.00,,,0.00,WUHU216HW,2013-02-03 08:03:00,
2013-02-03 00:08:00,40.1,38.3,30.31,SSE,158,1.6,3.8,93,0.00,,,0.00,WUHU216HW,2013-02-03 08:08:00,
2013-02-03 00:13:00,40.1,38.3,30.31,ESE,113,0.7,3.4,93,0.00,,,0.00,WUHU216HW,2013-02-03 08:13:00,
2013-02-03 00:18:00,40.0,38.1,30.31,ESE,113,0.7,3.4,93,0.00,,,0.00,WUHU216HW,2013-02-03 08:18:00,
2013-02-03 00:23:00,39.8,37.9,30.30,SE,135,1.3,2.5,93,0.00,,,0.00,WUHU216HW,2013-02-03 08:23:00,
2013-02-03 00:28:00,39.8,37.9,30.30,ESE,113,3.8,3.8,93,0.00,,,0.00,WUHU216HW,2013-02-03 08:28:00,
2013-02-03 00:33:00,39.6,37.7,30.31,NNE,23,0.0,3.8,93,0.00,,,0.00,WUHU216HW,2013-02-03 08:33:00,
2013-02-03 00:38:00,39.6,37.7,30.31,SSE,158,0.4,3.8,93,0.00,,,0.00,WUHU216HW,2013-02-03 08:38:00,
2013-02-03 00:43:00,39.6,37.7,30.31,East,90,0.4,1.3,93,0.00,,,0.00,WUHU216HW,2013-02-03 08:43:00,
2013-02-03 00:48:00,39.6,37.7,30.31,SSE,158,0.0,1.1,93,0.00,,,0.00,WUHU216HW,2013-02-03 08:48:00,
2013-02-03 00:53:00,39.6,37.7,30.32,South,180,0.2,2.9,93,0.00,,,0.00,WUHU216HW,2013-02-03 08:53:00,
2013-02-03 00:58:00,39.6,37.7,30.32,East,90,0.9,2.9,93,0.00,,,0.00,WUHU216HW,2013-02-03 08:58:00,
2013-02-03 01:03:00,39.6,37.7,30.33,South,180,0.4,1.3,93,0.00,,,0.00,WUHU216HW,2013-02-03 09:03:00,
2013-02-03 01:08:00,39.6,37.7,30.32,SE,135,0.0,0.9,93,0.00,,,0.00,WUHU216HW,2013-02-03 09:08:00,
2013-02-03 01:13:00,39.6,37.7,30.32,SE,135,0.4,2.2,93,0.00,,,0.00,WUHU216HW,2013-02-03 09:13:00,
2013-02-03 01:18:00,39.6,37.7,30.32,SE,135,1.3,3.4,93,0.00,,,0.00,WUHU216HW,2013-02-03 09:18:00,
2013-02-03 01:23:00,39.6,37.7,30.32,ESE,113,1.1,3.4,93,0.00,,,0.00,WUHU216HW,2013-02-03 09:23:00,
2013-02-03 01:28:00,39.6,37.7,30.32,SE,135,2.5,2.9,93,0.00,,,0.00,WUHU216HW,2013-02-03 09:28:00,
2013-02-03 01:33:00,39.6,37.7,30.32,SSE,158,0.2,2.9,93,0.00,,,0.00,WUHU216HW,2013-02-03 09:33:00,
2013-02-03 01:38:00,39.4,37.5,30.31,SSE,158,0.4,2.5,93,0.00,,,0.00,WUHU216HW,2013-02-03 09:38:00,
2013-02-03 01:43:00,39.6,37.7,30.30,SE,135,0.9,1.3,93,0.00,,,0.00,WUHU216HW,2013-02-03 09:43:00,
2013-02-03 01:48:00,39.6,37.7,30.30,SE,135,0.2,2.5,93,0.00,,,0.00,WUHU216HW,2013-02-03 09:48:00,
2013-02-03 01:53:00,39.6,37.7,30.30,SE,135,0.4,2.5,93,0.00,,,0.00,WUHU216HW,2013-02-03 09:53:00,
2013-02-03 01:58:00,39.6,37.7,30.31,ESE,113,0.7,1.1,93,0.00,,,0.00,WUHU216HW,2013-02-03 09:58:00,
2013-02-03 02:03:00,39.6,37.7,30.30,ESE,113,0.4,1.1,93,0.00,,,0.00,WUHU216HW,2013-02-03 10:03:00,
2013-02-03 02:08:00,39.8,37.9,30.30,SSE,158,0.0,2.2,93,0.00,,,0.00,WUHU216HW,2013-02-03 10:08:00,
2013-02-03 02:13:00,39.8,37.9,30.30,SE,135,1.1,2.2,93,0.00,,,0.00,WUHU216HW,2013-02-03 10:13:00,
2013-02-03 02:18:00,39.8,37.9,30.30,SE,135,0.0,1.8,93,0.00,,,0.00,WUHU216HW,2013-02-03 10:18:00,
2013-02-03 02:23:00,40.0,38.1,30.31,SSE,158,0.0,1.1,93,0.00,,,0.00,WUHU216HW,2013-02-03 10:23:00,
2013-02-03 02:28:00,40.0,38.1,30.32,South,180,2.5,2.9,93,0.00,,,0.00,WUHU216HW,2013-02-03 10:28:00,
2013-02-03 02:33:00,40.1,38.3,30.31,ESE,113,0.9,2.9,93,0.00,,,0.00,WUHU216HW,2013-02-03 10:33:00,
2013-02-03 02:38:00,40.3,38.7,30.31,SE,135,0.7,2.5,94,0.00,,,0.00,WUHU216HW,2013-02-03 10:38:00,
2013-02-03 02:43:00,40.3,38.4,30.31,ESE,113,0.0,1.8,93,0.00,,,0.00,WUHU216HW,2013-02-03 10:43:00,
2013-02-03 02:48:00,40.1,38.3,30.30,East,90,1.6,2.5,93,0.00,,,0.00,WUHU216HW,2013-02-03 10:48:00,
2013-02-03 02:53:00,40.3,38.4,30.30,SE,135,0.0,2.5,93,0.00,,,0.00,WUHU216HW,2013-02-03 10:53:00,
2013-02-03 02:58:00,40.3,38.7,30.30,SSE,158,0.9,2.9,94,0.00,,,0.00,WUHU216HW,2013-02-03 10:58:00,
2013-02-03 03:03:00,40.5,38.9,30.30,ESE,113,1.3,2.9,94,0.00,,,0.00,WUHU216HW,2013-02-03 11:03:00,
2013-02-03 03:08:00,40.5,38.6,30.30,ESE,113,0.0,1.6,93,0.00,,,0.00,WUHU216HW,2013-02-03 11:08:00,
2013-02-03 03:13:00,40.5,38.6,30.29,ESE,113,1.8,2.0,93,0.00,,,0.00,WUHU216HW,2013-02-03 11:13:00,
2013-02-03 03:18:00,40.5,38.6,30.29,SE,135,1.1,2.0,93,0.00,,,0.00,WUHU216HW,2013-02-03 11:18:00,
2013-02-03 03:23:00,40.7,38.8,30.28,SE,135,1.1,4.0,93,0.00,,,0.00,WUHU216HW,2013-02-03 11:23:00,
2013-02-03 03:28:00,40.7,38.8,30.29,SE,135,1.1,4.0,93,0.00,,,0.00,WUHU216HW,2013-02-03 11:28:00,
2013-02-03 03:33:00,40.7,38.8,30.28,SE,135,1.6,1.8,93,0.00,,,0.00,WUHU216HW,2013-02-03 11:33:00,
2013-02-03 03:38:00,40.9,39.0,30.28,SE,135,1.1,1.8,93,0.00,,,0.00,WUHU216HW,2013-02-03 11:38:00,
2013-02-03 03:44:00,41.0,39.2,30.28,SE,135,0.7,1.8,93,0.00,,,0.00,WUHU216HW,2013-02-03 11:44:00,
2013-02-03 03:49:00,41.0,39.2,30.29,SSE,158,1.1,1.8,93,0.00,,,0.00,WUHU216HW,2013-02-03 11:49:00,
2013-02-03 03:54:00,41.2,39.3,30.29,ENE,68,0.7,1.8,93,0.00,,,0.00,WUHU216HW,2013-02-03 11:54:00,
2013-02-03 03:59:00,41.2,39.3,30.30,East,90,0.0,1.3,93,0.00,,,0.00,WUHU216HW,2013-02-03 11:59:00,
2013-02-03 04:04:00,41.2,39.3,30.30,SE,135,1.3,2.5,93,0.00,,,0.00,WUHU216HW,2013-02-03 12:04:00,
2013-02-03 04:09:00,41.4,39.5,30.30,ESE,113,0.0,2.5,93,0.00,,,0.00,WUHU216HW,2013-02-03 12:09:00,
2013-02-03 04:14:00,41.4,39.5,30.30,ESE,113,0.4,1.3,93,0.00,,,0.00,WUHU216HW,2013-02-03 12:14:00,
2013-02-03 04:19:00,41.4,39.5,30.30,East,90,0.2,1.1,93,0.00,,,0.00,WUHU216HW,2013-02-03 12:19:00,
2013-02-03 04:24:00,41.4,39.5,30.30,ESE,113,0.0,0.4,93,0.00,,,0.00,WUHU216HW,2013-02-03 12:24:00,
2013-02-03 04:29:00,41.4,39.5,30.30,ESE,113,0.4,1.3,93,0.00,,,0.00,WUHU216HW,2013-02-03 12:29:00,
2013-02-03 04:34:00,41.6,39.7,30.30,ESE,113,0.0,1.3,93,0.00,,,0.00,WUHU216HW,2013-02-03 12:34:00,
2013-02-03 04:39:00,41.6,39.7,30.30,ESE,113,0.0,0.4,93,0.00,,,0.00,WUHU216HW,2013-02-03 12:39:00,
2013-02-03 04:44:00,41.6,39.7,30.30,ESE,113,0.0,1.3,93,0.00,,,0.00,WUHU216HW,2013-02-03 12:44:00,
2013-02-03 04:49:00,41.8,39.9,30.30,East,90,0.0,1.3,93,0.00,,,0.00,WUHU216HW,2013-02-03 12:49:00,
2013-02-03 04:54:00,41.8,39.9,30.31,East,90,0.0,0.9,93,0.00,,,0.00,WUHU216HW,2013-02-03 12:54:00,
2013-02-03 04:59:00,41.9,40.1,30.30,East,90,0.4,1.1,93,0.00,,,0.00,WUHU216HW,2013-02-03 12:59:00,
2013-02-03 05:04:00,41.9,40.1,30.30,SSE,158,0.4,1.1,93,0.00,,,0.00,WUHU216HW,2013-02-03 13:04:00,
2013-02-03 05:09:00,42.1,40.2,30.30,ESE,113,0.0,0.9,93,0.00,,,0.00,WUHU216HW,2013-02-03 13:09:00,
2013-02-03 05:14:00,42.1,40.2,30.30,SSE,158,0.2,0.7,93,0.00,,,0.00,WUHU216HW,2013-02-03 13:14:00,
2013-02-03 05:19:00,42.1,40.2,30.30,ESE,113,0.0,0.7,93,0.00,,,0.00,WUHU216HW,2013-02-03 13:19:00,
2013-02-03 05:24:00,42.1,40.2,30.30,ESE,113,0.0,0.2,93,0.00,,,0.00,WUHU216HW,2013-02-03 13:24:00,
2013-02-03 05:29:00,42.1,40.2,30.30,ESE,113,0.4,0.4,93,0.00,,,0.00,WUHU216HW,2013-02-03 13:29:00,
2013-02-03 05:34:00,42.1,40.2,30.30,East,90,0.2,0.4,93,0.00,,,0.00,WUHU216HW,2013-02-03 13:34:00,
2013-02-03 05:39:00,42.3,40.4,30.29,ESE,113,0.9,0.9,93,0.00,,,0.00,WUHU216HW,2013-02-03 13:39:00,
2013-02-03 05:44:00,42.3,40.4,30.29,ESE,113,0.4,1.1,93,0.00,,,0.00,WUHU216HW,2013-02-03 13:44:00,
2013-02-03 05:49:00,42.3,40.4,30.30,South,180,2.2,2.2,93,0.00,,,0.00,WUHU216HW,2013-02-03 13:49:00,
2013-02-03 05:54:00,42.3,40.4,30.29,SE,135,0.0,2.2,93,0.00,,,0.00,WUHU216HW,2013-02-03 13:54:00,
2013-02-03 05:59:00,42.5,40.6,30.30,SSW,203,0.0,2.2,93,0.00,,,0.00,WUHU216HW,2013-02-03 13:59:00,
2013-02-03 06:04:00,42.5,40.6,30.30,East,90,0.4,0.9,93,0.00,,,0.00,WUHU216HW,2013-02-03 14:04:00,
2013-02-03 06:09:00,42.5,40.6,30.30,SW,225,0.0,0.9,93,0.00,,,0.00,WUHU216HW,2013-02-03 14:09:00,
2013-02-03 06:14:00,42.5,40.6,30.31,SW,225,0.0,0.7,93,0.00,,,0.00,WUHU216HW,2013-02-03 14:14:00,
2013-02-03 06:19:00,42.5,40.6,30.32,ENE,68,0.0,1.3,93,0.00,,,0.00,WUHU216HW,2013-02-03 14:19:00,
2013-02-03 06:24:00,42.5,40.6,30.31,ENE,68,0.0,1.3,93,0.00,,,0.00,WUHU216HW,2013-02-03 14:24:00,
2013-02-03 06:29:00,42.5,40.6,30.31,East,90,0.0,0.7,93,0.00,,,0.00,WUHU216HW,2013-02-03 14:29:00,
2013-02-03 06:34:00,42.5,40.6,30.31,ESE,113,0.0,0.9,93,0.00,,,0.00,WUHU216HW,2013-02-03 14:34:00,
2013-02-03 06:39:00,42.3,40.4,30.31,ESE,113,0.7,1.6,93,0.01,,,0.01,WUHU216HW,2013-02-03 14:39:00,
2013-02-03 06:44:00,42.1,40.2,30.31,ESE,113,1.1,1.6,93,0.01,,,0.01,WUHU216HW,2013-02-03 14:44:00,
2013-02-03 06:49:00,42.1,40.2,30.31,ESE,113,0.7,1.6,93,0.01,,,0.01,WUHU216HW,2013-02-03 14:49:00,
2013-02-03 06:54:00,42.1,40.2,30.30,ESE,113,0.9,1.1,93,0.01,,,0.01,WUHU216HW,2013-02-03 14:54:00,
2013-02-03 06:59:00,42.1,40.2,30.30,ESE,113,0.2,1.1,93,0.01,,,0.01,WUHU216HW,2013-02-03 14:59:00,
2013-02-03 07:04:00,42.1,40.2,30.30,SE,135,0.0,0.9,93,0.01,,,0.01,WUHU216HW,2013-02-03 15:04:00,
2013-02-03 07:09:00,42.1,40.2,30.31,ENE,68,0.9,1.1,93,0.01,,,0.01,WUHU216HW,2013-02-03 15:09:00,
2013-02-03 07:14:00,42.1,40.2,30.31,ESE,113,0.0,1.1,93,0.01,,,0.01,WUHU216HW,2013-02-03 15:14:00,
2013-02-03 07:19:00,42.1,40.2,30.31,ESE,113,0.0,0.9,93,0.01,,,0.01,WUHU216HW,2013-02-03 15:19:00,
2013-02-03 07:24:00,42.1,40.2,30.31,ENE,68,0.9,0.9,93,0.01,,,0.01,WUHU216HW,2013-02-03 15:24:00,
2013-02-03 07:29:00,42.1,40.2,30.31,SE,135,0.0,0.9,93,0.01,,,0.01,WUHU216HW,2013-02-03 15:29:00,
2013-02-03 07:34:00,42.1,40.2,30.31,ESE,113,0.0,0.9,93,0.01,,,0.01,WUHU216HW,2013-02-03 15:34:00,
2013-02-03 07:39:00,42.1,40.2,30.32,ESE,113,0.0,0.0,93,0.00,,,0.01,WUHU216HW,2013-02-03 15:39:00,
2013-02-03 07:44:00,42.1,40.2,30.31,SE,135,0.0,0.4,93,0.00,,,0.01,WUHU216HW,2013-02-03 15:44:00,
2013-02-03 07:49:00,42.1,40.2,30.32,ESE,113,0.2,0.4,93,0.00,,,0.01,WUHU216HW,2013-02-03 15:49:00,
2013-02-03 07:54:00,42.1,40.2,30.32,East,90,0.0,0.4,93,0.00,,,0.01,WUHU216HW,2013-02-03 15:54:00,
2013-02-03 07:59:00,42.1,40.2,30.32,ESE,113,0.4,0.4,93,0.00,,,0.01,WUHU216HW,2013-02-03 15:59:00,
2013-02-03 08:04:00,42.1,40.2,30.32,ESE,113,0.4,1.1,93,0.00,,,0.01,WUHU216HW,2013-02-03 16:04:00,
2013-02-03 08:09:00,42.3,40.4,30.31,ESE,113,1.1,1.1,93,0.00,,,0.01,WUHU216HW,2013-02-03 16:09:00,
2013-02-03 08:14:00,42.3,40.4,30.31,SE,135,0.9,1.6,93,0.00,,,0.01,WUHU216HW,2013-02-03 16:14:00,
2013-02-03 08:19:00,42.3,40.4,30.31,ENE,68,1.1,1.6,93,0.00,,,0.01,WUHU216HW,2013-02-03 16:19:00,
2013-02-03 08:24:00,42.5,40.6,30.31,SE,135,0.9,2.5,93,0.00,,,0.01,WUHU216HW,2013-02-03 16:24:00,
2013-02-03 08:29:00,42.7,41.0,30.32,SE,135,0.2,2.5,94,0.00,,,0.01,WUHU216HW,2013-02-03 16:29:00,
2013-02-03 08:34:00,42.8,41.2,30.32,ESE,113,1.1,2.5,94,0.00,,,0.01,WUHU216HW,2013-02-03 16:34:00,
2013-02-03 08:39:00,42.8,41.2,30.31,ESE,113,0.9,2.2,94,0.00,,,0.01,WUHU216HW,2013-02-03 16:39:00,
2013-02-03 08:44:00,43.0,41.4,30.32,SE,135,0.0,2.2,94,0.00,,,0.01,WUHU216HW,2013-02-03 16:44:00,
2013-02-03 08:49:00,43.0,41.4,30.32,SE,135,0.7,1.1,94,0.00,,,0.01,WUHU216HW,2013-02-03 16:49:00,
2013-02-03 08:54:00,43.4,41.8,30.33,South,180,2.9,4.0,94,0.00,,,0.01,WUHU216HW,2013-02-03 16:54:00,
2013-02-03 08:59:00,43.6,41.9,30.33,SSE,158,0.7,4.0,94,0.00,,,0.01,WUHU216HW,2013-02-03 16:59:00,
2013-02-03 09:04:00,43.6,41.9,30.33,SE,135,0.7,3.6,94,0.00,,,0.01,WUHU216HW,2013-02-03 17:04:00,
2013-02-03 09:09:00,43.6,41.9,30.33,ESE,113,0.7,1.1,94,0.00,,,0.01,WUHU216HW,2013-02-03 17:09:00,
2013-02-03 09:14:00,43.7,42.1,30.33,ESE,113,0.7,1.8,94,0.00,,,0.01,WUHU216HW,2013-02-03 17:14:00,
2013-02-03 09:19:00,43.9,42.3,30.33,ESE,113,0.7,1.8,94,0.00,,,0.01,WUHU216HW,2013-02-03 17:19:00,
2013-02-03 09:24:00,43.9,42.3,30.33,ESE,113,0.0,0.7,94,0.00,,,0.01,WUHU216HW,2013-02-03 17:24:00,
2013-02-03 09:29:00,44.1,42.5,30.33,SE,135,0.9,1.1,94,0.00,,,0.01,WUHU216HW,2013-02-03 17:29:00,
2013-02-03 09:34:00,44.3,42.4,30.33,ESE,113,0.2,1.8,93,0.00,,,0.01,WUHU216HW,2013-02-03 17:34:00,
2013-02-03 09:39:00,44.3,42.4,30.32,SE,135,1.1,1.8,93,0.00,,,0.01,WUHU216HW,2013-02-03 17:39:00,
2013-02-03 09:44:00,44.3,42.4,30.32,SSE,158,1.1,2.0,93,0.00,,,0.01,WUHU216HW,2013-02-03 17:44:00,
2013-02-03 09:49:00,44.6,42.8,30.32,SSE,158,0.7,2.0,93,0.00,,,0.01,WUHU216HW,2013-02-03 17:49:00,
2013-02-03 09:54:00,44.8,42.9,30.32,SSE,158,1.1,1.3,93,0.00,,,0.01,WUHU216HW,2013-02-03 17:54:00,
2013-02-03 09:59:00,45.0,43.1,30.32,East,90,0.0,1.8,93,0.00,,,0.01,WUHU216HW,2013-02-03 17:59:00,
2013-02-03 10:04:00,45.2,43.3,30.32,ESE,113,0.0,1.8,93,0.00,,,0.01,WUHU216HW,2013-02-03 18:04:00,
2013-02-03 10:09:00,45.5,43.7,30.32,ESE,113,0.7,1.3,93,0.00,,,0.01,WUHU216HW,2013-02-03 18:09:00,
2013-02-03 10:14:00,45.7,43.8,30.32,SE,135,0.7,1.6,93,0.00,,,0.01,WUHU216HW,2013-02-03 18:14:00,
2013-02-03 10:19:00,45.9,44.0,30.32,SE,135,1.1,1.6,93,0.00,,,0.01,WUHU216HW,2013-02-03 18:19:00,
2013-02-03 10:24:00,46.3,44.4,30.32,SSW,203,2.9,2.9,93,0.00,,,0.01,WUHU216HW,2013-02-03 18:24:00,
2013-02-03 10:29:00,46.3,43.8,30.32,SSE,158,2.0,2.9,91,0.00,,,0.01,WUHU216HW,2013-02-03 18:29:00,
2013-02-03 10:34:00,46.1,43.4,30.32,SE,135,1.1,2.5,90,0.00,,,0.01,WUHU216HW,2013-02-03 18:34:00,
2013-02-03 10:39:00,46.3,43.8,30.32,South,180,1.8,2.2,91,0.00,,,0.01,WUHU216HW,2013-02-03 18:39:00,
2013-02-03 10:44:00,46.4,44.0,30.32,SE,135,0.4,2.2,91,0.00,,,0.01,WUHU216HW,2013-02-03 18:44:00,
2013-02-03 10:49:00,46.4,44.0,30.33,East,90,0.4,1.8,91,0.00,,,0.01,WUHU216HW,2013-02-03 18:49:00,
2013-02-03 10:54:00,46.6,44.2,30.33,SE,135,1.3,1.8,91,0.00,,,0.01,WUHU216HW,2013-02-03 18:54:00,
2013-02-03 10:59:00,46.8,44.4,30.33,SSE,158,0.0,1.8,91,0.00,,,0.01,WUHU216HW,2013-02-03 18:59:00,
2013-02-03 11:04:00,46.8,44.4,30.33,ESE,113,0.9,1.6,91,0.00,,,0.01,WUHU216HW,2013-02-03 19:04:00,
2013-02-03 11:09:00,47.0,44.3,30.33,East,90,0.0,1.6,90,0.00,,,0.01,WUHU216HW,2013-02-03 19:09:00,
2013-02-03 11:14:00,47.2,44.5,30.33,ENE,68,0.0,1.6,90,0.00,,,0.01,WUHU216HW,2013-02-03 19:14:00,
2013-02-03 11:19:00,47.0,44.3,30.33,SSW,203,0.4,1.6,90,0.00,,,0.01,WUHU216HW,2013-02-03 19:19:00,
2013-02-03 11:24:00,47.0,44.3,30.33,ENE,68,1.1,1.1,90,0.00,,,0.01,WUHU216HW,2013-02-03 19:24:00,
2013-02-03 11:29:00,46.8,44.1,30.33,ESE,113,0.7,1.1,90,0.00,,,0.01,WUHU216HW,2013-02-03 19:29:00,
2013-02-03 11:34:00,46.8,43.8,30.33,East,90,0.0,1.1,89,0.00,,,0.01,WUHU216HW,2013-02-03 19:34:00,
2013-02-03 11:39:00,47.0,44.3,30.33,ESE,113,0.7,1.1,90,0.00,,,0.01,WUHU216HW,2013-02-03 19:39:00,
2013-02-03 11:44:00,47.2,44.2,30.32,ESE,113,0.7,1.1,89,0.00,,,0.01,WUHU216HW,2013-02-03 19:44:00,
2013-02-03 11:49:00,47.2,44.2,30.32,ESE,113,1.8,1.8,89,0.00,,,0.01,WUHU216HW,2013-02-03 19:49:00,
2013-02-03 11:54:00,47.2,44.2,30.32,ESE,113,0.9,1.8,89,0.00,,,0.01,WUHU216HW,2013-02-03 19:54:00,
2013-02-03 11:59:00,47.5,44.2,30.31,ESE,113,0.9,1.8,88,0.00,,,0.01,WUHU216HW,2013-02-03 19:59:00,
2013-02-03 12:04:00,47.7,44.4,30.31,ESE,113,1.3,2.0,88,0.00,,,0.01,WUHU216HW,2013-02-03 20:04:00,
2013-02-03 12:09:00,48.4,45.1,30.31,ESE,113,1.6,2.0,88,0.00,,,0.01,WUHU216HW,2013-02-03 20:09:00,
2013-02-03 12:14:00,49.0,45.3,30.31,ESE,113,1.8,2.9,87,0.00,,,0.01,WUHU216HW,2013-02-03 20:14:00,
2013-02-03 12:19:00,49.3,45.3,30.31,South,180,1.8,2.9,86,0.00,,,0.01,WUHU216HW,2013-02-03 20:19:00,
2013-02-03 12:24:00,49.1,44.1,30.30,SE,135,2.7,2.7,83,0.00,,,0.01,WUHU216HW,2013-02-03 20:24:00,
2013-02-03 12:29:00,49.1,43.8,30.31,SSE,158,1.8,4.0,82,0.00,,,0.01,WUHU216HW,2013-02-03 20:29:00,
2013-02-03 12:34:00,48.8,43.5,30.31,SE,135,1.8,4.0,82,0.00,,,0.01,WUHU216HW,2013-02-03 20:34:00,
2013-02-03 12:39:00,48.8,43.8,30.31,ESE,113,1.3,1.8,83,0.00,,,0.01,WUHU216HW,2013-02-03 20:39:00,
2013-02-03 12:44:00,48.8,43.8,30.31,SE,135,1.6,1.8,83,0.00,,,0.01,WUHU216HW,2013-02-03 20:44:00,
2013-02-03 12:49:00,49.0,44.3,30.31,SE,135,2.5,2.5,84,0.00,,,0.01,WUHU216HW,2013-02-03 20:49:00,
2013-02-03 12:54:00,49.1,44.1,30.31,SE,135,0.7,2.5,83,0.00,,,0.01,WUHU216HW,2013-02-03 20:54:00,
2013-02-03 12:59:00,49.5,44.5,30.31,SE,135,1.1,2.5,83,0.00,,,0.01,WUHU216HW,2013-02-03 20:59:00,
2013-02-03 13:04:00,50.0,45.0,30.31,SSE,158,1.8,3.1,83,0.00,,,0.01,WUHU216HW,2013-02-03 21:04:00,
2013-02-03 13:09:00,50.0,44.7,30.30,SE,135,0.4,3.1,82,0.00,,,0.01,WUHU216HW,2013-02-03 21:09:00,
2013-02-03 13:14:00,49.9,44.2,30.30,SSE,158,1.8,3.1,81,0.00,,,0.01,WUHU216HW,2013-02-03 21:14:00,
2013-02-03 13:19:00,49.5,44.2,30.30,SE,135,3.1,3.1,82,0.00,,,0.01,WUHU216HW,2013-02-03 21:19:00,
2013-02-03 13:24:00,49.5,44.2,30.30,SE,135,3.4,3.4,82,0.00,,,0.01,WUHU216HW,2013-02-03 21:24:00,
2013-02-03 13:29:00,49.3,44.0,30.30,SE,135,2.0,3.4,82,0.00,,,0.01,WUHU216HW,2013-02-03 21:29:00,
2013-02-03 13:34:00,49.5,43.8,30.29,ESE,113,2.2,3.4,81,0.00,,,0.01,WUHU216HW,2013-02-03 21:34:00,
2013-02-03 13:39:00,49.9,44.2,30.29,ESE,113,4.0,4.0,81,0.00,,,0.01,WUHU216HW,2013-02-03 21:39:00,
2013-02-03 13:44:00,49.9,44.2,30.29,East,90,1.1,4.0,81,0.00,,,0.01,WUHU216HW,2013-02-03 21:44:00,
2013-02-03 13:49:00,49.9,44.6,30.28,SE,135,3.1,3.1,82,0.00,,,0.01,WUHU216HW,2013-02-03 21:49:00,
2013-02-03 13:54:00,49.9,44.2,30.28,ESE,113,2.2,3.6,81,0.00,,,0.01,WUHU216HW,2013-02-03 21:54:00,
2013-02-03 13:59:00,49.9,44.6,30.27,ESE,113,2.5,3.6,82,0.00,,,0.01,WUHU216HW,2013-02-03 21:59:00,
2013-02-03 14:04:00,49.9,44.6,30.27,SE,135,3.4,3.4,82,0.00,,,0.01,WUHU216HW,2013-02-03 22:04:00,
2013-02-03 14:09:00,50.2,44.9,30.27,SE,135,1.8,3.4,82,0.00,,,0.01,WUHU216HW,2013-02-03 22:09:00,
2013-02-03 14:14:00,50.8,44.5,30.27,East,90,0.7,3.4,79,0.00,,,0.01,WUHU216HW,2013-02-03 22:14:00,
2013-02-03 14:19:00,50.6,44.3,30.28,SE,135,1.6,2.5,79,0.00,,,0.01,WUHU216HW,2013-02-03 22:19:00,
2013-02-03 14:24:00,50.0,43.7,30.28,SSE,158,1.3,2.5,79,0.00,,,0.01,WUHU216HW,2013-02-03 22:24:00,
2013-02-03 14:29:00,50.0,44.1,30.28,SE,135,1.1,2.5,80,0.00,,,0.01,WUHU216HW,2013-02-03 22:29:00,
2013-02-03 14:34:00,49.7,44.0,30.28,ESE,113,0.2,2.2,81,0.00,,,0.01,WUHU216HW,2013-02-03 22:34:00,
2013-02-03 14:39:00,49.7,44.0,30.28,SSE,158,1.8,2.2,81,0.00,,,0.01,WUHU216HW,2013-02-03 22:39:00,
2013-02-03 14:44:00,49.3,44.0,30.27,East,90,1.1,2.2,82,0.00,,,0.01,WUHU216HW,2013-02-03 22:44:00,
2013-02-03 14:49:00,49.3,44.0,30.27,SE,135,1.1,2.5,82,0.00,,,0.01,WUHU216HW,2013-02-03 22:49:00,
2013-02-03 14:54:00,49.3,44.0,30.27,ESE,113,2.5,2.5,82,0.00,,,0.01,WUHU216HW,2013-02-03 22:54:00,
2013-02-03 14:59:00,49.3,44.0,30.27,ESE,113,2.5,2.5,82,0.00,,,0.01,WUHU216HW,2013-02-03 22:59:00,
2013-02-03 15:04:00,49.3,44.0,30.27,East,90,1.8,2.5,82,0.00,,,0.01,WUHU216HW,2013-02-03 23:04:00,
2013-02-03 15:09:00,49.3,44.0,30.27,SE,135,0.2,2.7,82,0.00,,,0.01,WUHU216HW,2013-02-03 23:09:00,
2013-02-03 15:14:00,49.3,44.0,30.27,SE,135,1.6,2.7,82,0.00,,,0.01,WUHU216HW,2013-02-03 23:14:00,
2013-02-03 15:19:00,49.1,43.8,30.28,East,90,1.1,1.6,82,0.00,,,0.01,WUHU216HW,2013-02-03 23:19:00,
2013-02-03 15:24:00,49.0,43.7,30.27,SE,135,1.8,2.2,82,0.00,,,0.01,WUHU216HW,2013-02-03 23:24:00,
2013-02-03 15:29:00,49.0,43.7,30.27,SE,135,1.8,2.2,82,0.00,,,0.01,WUHU216HW,2013-02-03 23:29:00,
2013-02-03 15:34:00,48.8,43.5,30.27,ESE,113,1.1,1.8,82,0.00,,,0.01,WUHU216HW,2013-02-03 23:34:00,
2013-02-03 15:39:00,48.8,43.8,30.27,ESE,113,1.6,1.6,83,0.00,,,0.01,WUHU216HW,2013-02-03 23:39:00,
2013-02-03 15:44:00,48.8,43.8,30.27,ESE,113,0.4,3.4,83,0.00,,,0.01,WUHU216HW,2013-02-03 23:44:00,
2013-02-03 15:49:00,48.6,43.7,30.28,East,90,0.7,3.4,83,0.00,,,0.01,WUHU216HW,2013-02-03 23:49:00,
2013-02-03 15:54:00,48.4,43.5,30.27,SE,135,0.4,4.9,83,0.00,,,0.01,WUHU216HW,2013-02-03 23:54:00,
2013-02-03 15:59:00,48.2,43.3,30.27,East,90,0.0,4.9,83,0.00,,,0.01,WUHU216HW,2013-02-03 23:59:00,
2013-02-03 16:05:00,48.2,43.3,30.28,ESE,113,1.8,2.7,83,0.00,,,0.01,WUHU216HW,2013-02-04 00:05:00,
2013-02-03 16:10:00,48.1,43.1,30.28,ENE,68,0.0,1.8,83,0.00,,,0.01,WUHU216HW,2013-02-04 00:10:00,
2013-02-03 16:15:00,47.9,42.9,30.27,East,90,1.1,1.1,83,0.00,,,0.01,WUHU216HW,2013-02-04 00:15:00,
2013-02-03 16:20:00,47.9,42.9,30.27,SE,135,2.5,3.4,83,0.00,,,0.01,WUHU216HW,2013-02-04 00:20:00,
2013-02-03 16:25:00,47.9,42.9,30.27,ESE,113,2.2,3.4,83,0.00,,,0.01,WUHU216HW,2013-02-04 00:25:00,
2013-02-03 16:30:00,47.7,43.1,30.27,ESE,113,0.9,2.9,84,0.00,,,0.01,WUHU216HW,2013-02-04 00:30:00,
2013-02-03 16:35:00,47.5,42.9,30.27,South,180,0.2,2.9,84,0.00,,,0.01,WUHU216HW,2013-02-04 00:35:00,
2013-02-03 16:40:00,47.3,42.8,30.27,SE,135,1.3,3.4,84,0.00,,,0.01,WUHU216HW,2013-02-04 00:40:00,
2013-02-03 16:45:00,47.3,43.0,30.27,ESE,113,2.0,3.4,85,0.00,,,0.01,WUHU216HW,2013-02-04 00:45:00,
2013-02-03 16:50:00,47.2,42.9,30.27,ESE,113,1.8,3.1,85,0.00,,,0.01,WUHU216HW,2013-02-04 00:50:00,
2013-02-03 16:55:00,47.2,42.9,30.27,ESE,113,0.4,2.0,85,0.00,,,0.01,WUHU216HW,2013-02-04 00:55:00,
2013-02-03 17:00:00,47.2,42.9,30.27,East,90,2.5,2.5,85,0.00,,,0.01,WUHU216HW,2013-02-04 01:00:00,
2013-02-03 17:05:00,47.0,42.8,30.27,ESE,113,0.9,2.5,85,0.00,,,0.01,WUHU216HW,2013-02-04 01:05:00,
2013-02-03 17:10:00,47.0,42.8,30.27,SSE,158,2.9,2.9,85,0.00,,,0.01,WUHU216HW,2013-02-04 01:10:00,
2013-02-03 17:15:00,46.8,42.6,30.27,ESE,113,1.1,2.9,85,0.00,,,0.01,WUHU216HW,2013-02-04 01:15:00,
2013-02-03 17:20:00,46.8,42.6,30.27,East,90,0.2,2.9,85,0.00,,,0.01,WUHU216HW,2013-02-04 01:20:00,
2013-02-03 17:25:00,46.6,42.7,30.27,ESE,113,2.0,2.0,86,0.00,,,0.01,WUHU216HW,2013-02-04 01:25:00,
2013-02-03 17:30:00,46.4,42.5,30.27,SE,135,1.1,2.0,86,0.00,,,0.01,WUHU216HW,2013-02-04 01:30:00,
2013-02-03 17:35:00,46.4,42.5,30.27,East,90,0.0,2.0,86,0.00,,,0.01,WUHU216HW,2013-02-04 01:35:00,
2013-02-03 17:40:00,46.4,42.5,30.27,East,90,0.7,1.1,86,0.00,,,0.01,WUHU216HW,2013-02-04 01:40:00,
2013-02-03 17:45:00,46.3,42.7,30.27,ENE,68,0.7,1.8,87,0.00,,,0.01,WUHU216HW,2013-02-04 01:45:00,
2013-02-03 17:50:00,46.3,42.7,30.27,ESE,113,1.1,3.4,87,0.00,,,0.01,WUHU216HW,2013-02-04 01:50:00,
2013-02-03 17:55:00,46.3,42.7,30.27,SE,135,1.8,3.4,87,0.01,,,0.02,WUHU216HW,2013-02-04 01:55:00,
2013-02-03 18:00:00,46.1,42.5,30.27,SE,135,2.7,2.7,87,0.01,,,0.02,WUHU216HW,2013-02-04 02:00:00,
2013-02-03 18:05:00,46.1,42.8,30.27,ESE,113,2.5,2.7,88,0.01,,,0.02,WUHU216HW,2013-02-04 02:05:00,
2013-02-03 18:10:00,45.9,42.6,30.27,SSE,158,0.7,2.7,88,0.01,,,0.02,WUHU216HW,2013-02-04 02:10:00,
2013-02-03 18:15:00,45.7,42.4,30.26,East,90,1.8,2.5,88,0.01,,,0.02,WUHU216HW,2013-02-04 02:15:00,
2013-02-03 18:20:00,45.7,42.4,30.27,ESE,113,0.4,1.8,88,0.02,,,0.03,WUHU216HW,2013-02-04 02:20:00,
2013-02-03 18:25:00,45.7,42.8,30.26,SE,135,1.8,2.2,89,0.02,,,0.03,WUHU216HW,2013-02-04 02:25:00,
2013-02-03 18:30:00,45.5,42.6,30.26,East,90,0.2,2.2,89,0.02,,,0.03,WUHU216HW,2013-02-04 02:30:00,
2013-02-03 18:35:00,45.4,42.7,30.26,SE,135,2.5,2.5,90,0.02,,,0.03,WUHU216HW,2013-02-04 02:35:00,
2013-02-03 18:40:00,45.4,42.7,30.26,ESE,113,1.1,2.5,90,0.02,,,0.03,WUHU216HW,2013-02-04 02:40:00,
2013-02-03 18:45:00,45.4,42.7,30.26,SE,135,1.1,2.7,90,0.02,,,0.03,WUHU216HW,2013-02-04 02:45:00,
2013-02-03 18:50:00,45.2,42.8,30.26,ESE,113,0.2,2.7,91,0.03,,,0.04,WUHU216HW,2013-02-04 02:50:00,
2013-02-03 18:55:00,45.2,42.8,30.26,ESE,113,2.0,2.0,91,0.02,,,0.04,WUHU216HW,2013-02-04 02:55:00,
2013-02-03 19:00:00,45.0,42.6,30.26,ESE,113,1.6,2.7,91,0.02,,,0.04,WUHU216HW,2013-02-04 03:00:00,
2013-02-03 19:05:00,45.0,42.6,30.26,East,90,0.2,3.4,91,0.02,,,0.04,WUHU216HW,2013-02-04 03:05:00,
2013-02-03 19:10:00,45.0,42.6,30.26,SE,135,1.1,3.4,91,0.03,,,0.05,WUHU216HW,2013-02-04 03:10:00,
2013-02-03 19:15:00,45.0,42.6,30.26,East,90,1.8,3.4,91,0.03,,,0.05,WUHU216HW,2013-02-04 03:15:00,
2013-02-03 19:20:00,45.0,42.6,30.26,ESE,113,1.3,2.7,91,0.02,,,0.05,WUHU216HW,2013-02-04 03:20:00,
2013-02-03 19:25:00,45.0,42.6,30.26,East,90,0.2,1.8,91,0.03,,,0.06,WUHU216HW,2013-02-04 03:25:00,
2013-02-03 19:30:00,45.0,42.8,30.25,ESE,113,2.5,2.5,92,0.03,,,0.06,WUHU216HW,2013-02-04 03:30:00,
2013-02-03 19:35:00,44.8,42.4,30.25,SE,135,1.8,2.5,91,0.03,,,0.06,WUHU216HW,2013-02-04 03:35:00,
2013-02-03 19:40:00,44.8,42.4,30.25,NE,45,1.1,2.5,91,0.03,,,0.06,WUHU216HW,2013-02-04 03:40:00,
2013-02-03 19:45:00,44.8,42.4,30.25,ENE,68,0.9,1.8,91,0.04,,,0.07,WUHU216HW,2013-02-04 03:45:00,
2013-02-03 19:50:00,44.8,42.4,30.25,ESE,113,0.9,2.9,91,0.03,,,0.07,WUHU216HW,2013-02-04 03:50:00,
2013-02-03 19:55:00,44.8,42.4,30.25,ENE,68,1.8,2.9,91,0.03,,,0.07,WUHU216HW,2013-02-04 03:55:00,
2013-02-03 20:00:00,44.6,42.2,30.25,ESE,113,0.9,2.5,91,0.04,,,0.08,WUHU216HW,2013-02-04 04:00:00,
2013-02-03 20:05:00,44.6,42.2,30.25,ESE,113,1.8,2.7,91,0.04,,,0.08,WUHU216HW,2013-02-04 04:05:00,
2013-02-03 20:10:00,44.6,42.5,30.25,ESE,113,2.0,2.7,92,0.03,,,0.08,WUHU216HW,2013-02-04 04:10:00,
2013-02-03 20:15:00,44.6,42.5,30.25,ESE,113,1.8,3.4,92,0.03,,,0.08,WUHU216HW,2013-02-04 04:15:00,
2013-02-03 20:20:00,44.6,42.5,30.25,SE,135,1.6,3.4,92,0.02,,,0.08,WUHU216HW,2013-02-04 04:20:00,
2013-02-03 20:25:00,44.6,42.5,30.24,ESE,113,0.4,1.8,92,0.03,,,0.09,WUHU216HW,2013-02-04 04:25:00,
2013-02-03 20:30:00,44.6,42.5,30.24,NE,45,1.6,1.8,92,0.03,,,0.09,WUHU216HW,2013-02-04 04:30:00,
2013-02-03 20:35:00,44.6,42.5,30.24,ESE,113,0.7,1.6,92,0.03,,,0.09,WUHU216HW,2013-02-04 04:35:00,
2013-02-03 20:40:00,44.6,42.5,30.24,ENE,68,0.0,1.6,92,0.03,,,0.09,WUHU216HW,2013-02-04 04:40:00,
2013-02-03 20:45:00,44.6,42.5,30.24,East,90,1.1,2.0,92,0.02,,,0.09,WUHU216HW,2013-02-04 04:45:00,
2013-02-03 20:50:00,44.6,42.5,30.25,SE,135,0.9,2.0,92,0.02,,,0.09,WUHU216HW,2013-02-04 04:50:00,
2013-02-03 20:55:00,44.6,42.5,30.25,ENE,68,0.9,2.0,92,0.02,,,0.09,WUHU216HW,2013-02-04 04:55:00,
2013-02-03 21:00:00,44.6,42.8,30.25,ESE,113,1.6,2.0,93,0.01,,,0.09,WUHU216HW,2013-02-04 05:00:00,
2013-02-03 21:10:00,44.6,42.8,30.25,SE,135,1.1,3.4,93,0.01,,,0.09,WUHU216HW,2013-02-04 05:10:00,
2013-02-03 21:15:00,44.6,42.8,30.25,ENE,68,0.0,3.4,93,0.01,,,0.09,WUHU216HW,2013-02-04 05:15:00,
2013-02-03 21:20:00,44.6,42.8,30.25,ESE,113,0.7,1.1,93,0.01,,,0.09,WUHU216HW,2013-02-04 05:20:00,
2013-02-03 21:25:00,44.6,42.8,30.25,ESE,113,1.1,1.1,93,0.00,,,0.09,WUHU216HW,2013-02-04 05:25:00,
2013-02-03 21:30:00,44.6,42.8,30.25,SSE,158,1.1,2.7,93,0.00,,,0.09,WUHU216HW,2013-02-04 05:30:00,
2013-02-03 21:35:00,44.6,42.8,30.25,East,90,0.2,2.7,93,0.00,,,0.09,WUHU216HW,2013-02-04 05:35:00,
2013-02-03 21:40:00,44.6,42.8,30.25,ESE,113,1.1,2.0,93,0.00,,,0.09,WUHU216HW,2013-02-04 05:40:00,
2013-02-03 21:45:00,44.6,42.8,30.25,ESE,113,0.4,1.3,93,0.00,,,0.09,WUHU216HW,2013-02-04 05:45:00,
2013-02-03 21:50:00,44.6,42.8,30.25,SE,135,0.2,1.1,93,0.00,,,0.09,WUHU216HW,2013-02-04 05:50:00,
2013-02-03 21:56:00,44.6,42.8,30.25,SE,135,1.6,1.6,93,0.00,,,0.09,WUHU216HW,2013-02-04 05:56:00,
2013-02-03 22:01:00,44.5,42.6,30.25,South,180,5.4,5.4,93,0.00,,,0.09,WUHU216HW,2013-02-04 06:01:00,
2013-02-03 22:06:00,44.5,42.6,30.25,SE,135,1.8,5.4,93,0.00,,,0.09,WUHU216HW,2013-02-04 06:06:00,
2013-02-03 22:11:00,44.5,42.6,30.25,ESE,113,1.1,5.4,93,0.00,,,0.09,WUHU216HW,2013-02-04 06:11:00,
2013-02-03 22:16:00,44.5,42.6,30.25,SE,135,0.9,1.8,93,0.00,,,0.09,WUHU216HW,2013-02-04 06:16:00,
2013-02-03 22:21:00,44.3,42.4,30.25,East,90,0.7,1.8,93,0.00,,,0.09,WUHU216HW,2013-02-04 06:21:00,
2013-02-03 22:26:00,44.3,42.4,30.24,ESE,113,0.4,1.8,93,0.00,,,0.09,WUHU216HW,2013-02-04 06:26:00,
2013-02-03 22:31:00,44.3,42.4,30.24,East,90,0.2,1.8,93,0.00,,,0.09,WUHU216HW,2013-02-04 06:31:00,
2013-02-03 22:36:00,44.3,42.4,30.24,ESE,113,0.4,1.6,93,0.00,,,0.09,WUHU216HW,2013-02-04 06:36:00,
2013-02-03 22:41:00,44.1,42.2,30.24,East,90,0.4,3.4,93,0.00,,,0.09,WUHU216HW,2013-02-04 06:41:00,
2013-02-03 22:46:00,44.1,42.2,30.24,East,90,0.0,4.3,93,0.00,,,0.09,WUHU216HW,2013-02-04 06:46:00,
2013-02-03 22:51:00,44.1,42.2,30.25,SE,135,0.4,4.3,93,0.00,,,0.09,WUHU216HW,2013-02-04 06:51:00,
2013-02-03 22:56:00,44.3,42.4,30.25,SE,135,0.2,3.4,93,0.00,,,0.09,WUHU216HW,2013-02-04 06:56:00,
2013-02-03 23:01:00,44.3,42.4,30.25,South,180,0.4,4.0,93,0.00,,,0.09,WUHU216HW,2013-02-04 07:01:00,
2013-02-03 23:06:00,44.3,42.4,30.25,SE,135,2.5,4.0,93,0.00,,,0.09,WUHU216HW,2013-02-04 07:06:00,
2013-02-03 23:11:00,44.3,42.4,30.25,SE,135,4.7,4.7,93,0.00,,,0.09,WUHU216HW,2013-02-04 07:11:00,
2013-02-03 23:16:00,44.3,42.4,30.25,East,90,0.4,4.7,93,0.00,,,0.09,WUHU216HW,2013-02-04 07:16:00,
2013-02-03 23:21:00,44.3,42.4,30.24,East,90,0.7,4.7,93,0.00,,,0.09,WUHU216HW,2013-02-04 07:21:00,
2013-02-03 23:26:00,44.3,42.4,30.24,East,90,0.7,1.8,93,0.00,,,0.09,WUHU216HW,2013-02-04 07:26:00,
2013-02-03 23:31:00,44.3,42.4,30.24,ESE,113,0.4,1.8,93,0.00,,,0.09,WUHU216HW,2013-02-04 07:31:00,
2013-02-03 23:36:00,44.3,42.4,30.24,SE,135,0.0,0.7,93,0.00,,,0.09,WUHU216HW,2013-02-04 07:36:00,
2013-02-03 23:41:00,44.3,42.4,30.24,East,90,0.0,0.9,93,0.00,,,0.09,WUHU216HW,2013-02-04 07:41:00,
2013-02-03 23:46:00,44.1,42.2,30.24,East,90,0.0,0.9,93,0.00,,,0.09,WUHU216HW,2013-02-04 07:46:00,
2013-02-03 23:51:00,43.9,42.0,30.24,ENE,68,0.0,0.7,93,0.00,,,0.09,WUHU216HW,2013-02-04 07:51:00,
2013-02-03 23:56:00,43.9,42.0,30.24,ENE,68,0.7,0.7,93,0.00,,,0.09,WUHU216HW,2013-02-04 07:56:00,